Flight Track Log - Related Links

Times and Time Zones

All times are in EDT time to prevent confusion due to time zone crossing. See the FLG3862 flight status page for this flight to view local times or setup timezone preferences in your user account.

Time Position Orientation Groundspeed Altitude Reporting Facility
EDT Latitude Longitude Course Direction KTS MPH feet Rate Location/Type
Sat 12:52:00 PM 44.4110 -73.4933 253° West  Level FlightAware Approximate
Sat 12:52:12 PM 44.4931 -73.3508 257° West 234 269 8,900  Level Boston Center
Sat 12:53:00 PM 44.3869 -73.6060 253° West  Level FlightAware Approximate
Sat 12:53:12 PM 44.4758 -73.4408 255° West 240 276 11,100  Level Boston Center
Sat 12:54:00 PM 44.3640 -73.7190 259° West  Level FlightAware Approximate
Sat 12:54:12 PM 44.4603 -73.5308 256° West 252 290 12,100  Level Boston Center
Sat 12:55:00 PM 44.3475 -73.8343 259° West  Level FlightAware Approximate
Sat 12:55:12 PM 44.4361 -73.6553 255° West 289 333 13,900  Level Boston Center
Sat 12:56:00 PM 44.3304 -73.9493 256° West  Level FlightAware Approximate
Sat 12:56:12 PM 44.4139 -73.7769 256° West 307 353 15,800  Level Boston Center
Sat 12:57:12 PM 44.3897 -73.8956 254° West 318 366 17,700 1,950 Climbing Boston Center
Sat 12:58:12 PM 44.3672 -74.0111 255° West 318 366 19,700 1,950 Climbing Boston Center
Sat 12:59:12 PM 44.3447 -74.1294 255° West 303 349 21,600 1,545 Climbing Boston Center
Sat 01:00:24 PM 44.3267 -74.2336 256° West 303 349 23,100 1,409 Climbing Boston Center
Sat 01:01:24 PM 44.2994 -74.3661 254° West 288 331 24,700 1,350 Climbing Boston Center
Sat 01:02:24 PM 44.2789 -74.4669 254° West 278 320 25,800 1,050 Climbing Boston Center
Sat 01:03:24 PM 44.2583 -74.5706 255° West 278 320 26,800 1,000 Climbing Boston Center
Sat 01:04:24 PM 44.2397 -74.6742 256° West 283 326 27,800 600 Climbing Boston Center
Sat 01:05:24 PM 44.2167 -74.7806 253° West 278 320 28,000 100 Climbing Boston Center
Sat 01:06:24 PM 44.1956 -74.8928 255° West 285 328 28,000  Level Boston Center
Sat 01:07:24 PM 44.1722 -75.0106 255° West 300 345 28,000  Level Boston Center
Sat 01:08:24 PM 44.1486 -75.1311 255° West 314 361 28,000  Level Boston Center
Sat 01:09:24 PM 44.1247 -75.2544 255° West 326 375 28,000  Level Boston Center
Sat 01:10:24 PM 44.0967 -75.3803 253° West 331 381 28,000  Level Boston Center
Sat 01:11:24 PM 44.0725 -75.5061 255° West 339 390 28,000  Level Boston Center
Sat 01:12:24 PM 44.0442 -75.6319 253° West 339 390 28,000  Level Boston Center
Sat 01:13:24 PM 44.0197 -75.7575 255° West 339 390 28,000  Level Boston Center
Sat 01:14:24 PM 43.9931 -75.8831 254° West 339 390 28,000  Level Boston Center
Sat 01:15:24 PM 43.9683 -76.0089 255° West 339 390 28,000  Level Boston Center
Sat 01:16:24 PM 43.9561 -76.1292 262° West 344 396 28,000  Level Boston Center
Sat 01:17:24 PM 43.9517 -76.2644 267° West 349 402 28,000  Level Boston Center
Sat 01:18:24 PM 43.9492 -76.4000 269° West 349 402 28,000  Level Boston Center
Sat 01:19:24 PM 43.9422 -76.5381 266° West 349 402 28,000  Level Boston Center
Sat 01:20:31 PM 43.9333 -76.7000 266° West 360 414 28,000  Level Toronto Center
Sat 01:21:31 PM 43.9167 -76.8167 259° West 360 414 28,000  Level Toronto Center
Sat 01:22:31 PM 43.9167 -76.9667 270° West 360 414 28,000  Level Toronto Center
Sat 01:23:31 PM 43.9167 -77.0833 270° West 360 414 28,000  Level Toronto Center
Sat 01:24:31 PM 43.9000 -77.2333 261° West 360 414 28,000  Level Toronto Center
Sat 01:25:31 PM 43.9167 -77.3833 279° West 370 426 28,000  Level Toronto Center
Sat 01:26:31 PM 43.9000 -77.5333 261° West 370 426 28,000  Level Toronto Center
Sat 01:27:31 PM 43.9000 -77.6667 270° West 370 426 28,000  Level Toronto Center
Sat 01:28:31 PM 43.8833 -77.8000 260° West 370 426 28,000  Level Toronto Center
Sat 01:29:31 PM 43.8833 -77.9500 270° West 370 426 28,000  Level Toronto Center
Sat 01:30:31 PM 43.8667 -78.0833 260° West 370 426 28,000  Level Toronto Center
Sat 01:31:31 PM 43.8667 -78.2167 270° West 370 426 28,000  Level Toronto Center
Sat 01:32:31 PM 43.8500 -78.3833 262° West 380 437 28,000  Level Toronto Center
Sat 01:33:31 PM 43.8667 -78.5167 280° West 380 437 28,000  Level Toronto Center
Sat 01:34:31 PM 43.8500 -78.6667 261° West 380 437 28,000  Level Toronto Center
Sat 01:35:31 PM 43.8500 -78.8000 270° West 380 437 28,000  Level Toronto Center
Sat 01:36:31 PM 43.8500 -78.9667 270° West 380 437 28,000  Level Toronto Center
Sat 01:37:31 PM 43.8000 -79.1000 243° Southwest 370 426 28,000  Level Toronto Center
Sat 01:38:31 PM 43.7500 -79.2000 235° Southwest 370 426 28,000  Level Toronto Center
Sat 01:39:31 PM 43.6833 -79.3167 232° Southwest 370 426 28,000  Level Toronto Center
Sat 01:40:31 PM 43.6167 -79.4333 232° Southwest 370 426 28,000  Level Toronto Center
Sat 01:41:31 PM 43.5500 -79.5167 222° Southwest 370 426 28,000  Level Toronto Center
Sat 01:42:31 PM 43.4833 -79.6333 232° Southwest 370 426 28,000  Level Toronto Center
Sat 01:43:31 PM 43.4167 -79.7500 232° Southwest 370 426 28,000  Level Toronto Center
Sat 01:44:31 PM 43.3500 -79.8667 232° Southwest 370 426 28,000  Level Toronto Center
Sat 01:45:31 PM 43.2667 -79.9500 216° Southwest 370 426 28,000  Level Toronto Center
Sat 01:46:31 PM 43.2000 -80.0667 232° Southwest 380 437 28,000  Level Toronto Center
Sat 01:47:31 PM 43.1333 -80.1833 232° Southwest 370 426 28,000  Level Toronto Center
Sat 01:48:31 PM 43.0667 -80.3000 232° Southwest 380 437 28,000 -450 Level Toronto Center
Sat 01:49:31 PM 43.0167 -80.4000 236° Southwest 380 437 27,100 -1,500 Descending Toronto Center
Sat 01:50:31 PM 42.9833 -80.5500 253° West 360 414 25,000 -1,950 Descending Toronto Center
Sat 01:51:31 PM 42.9667 -80.6500 257° West 350 403 23,200 -1,000 Descending Toronto Center
Sat 01:52:31 PM 42.9333 -80.8000 253° West 340 391 23,000 -100 Descending Toronto Center
Sat 01:53:31 PM 42.8833 -80.9000 236° Southwest 340 391 23,000  Level Toronto Center
Sat 01:54:31 PM 42.8500 -81.0500 253° West 350 403 23,000  Level Toronto Center
Sat 01:54:57 PM 42.8633 -81.1014 290° West 346 398 23,000  Level Cleveland Center
Sat 01:55:57 PM 42.8336 -81.2286 252° West 346 398 23,000  Level Cleveland Center
Sat 01:56:57 PM 42.8014 -81.3528 251° West 346 398 23,000  Level Cleveland Center
Sat 01:57:57 PM 42.7736 -81.4769 253° West 346 398 23,000  Level Cleveland Center
Sat 01:58:57 PM 42.7456 -81.5869 251° West 346 398 23,000  Level Cleveland Center
Sat 01:59:57 PM 42.7153 -81.7136 252° West 346 398 23,000 -450 Level Cleveland Center
Sat 02:00:57 PM 42.6806 -81.8456 250° West 346 398 22,100 -1,350 Descending Cleveland Center
Sat 02:01:57 PM 42.6497 -81.9719 252° West 346 398 20,300 -1,800 Descending Cleveland Center
Sat 02:02:57 PM 42.6192 -82.0956 251° West 346 398 18,500 -1,650 Descending Cleveland Center
Sat 02:03:57 PM 42.5903 -82.2133 252° West 340 391 17,000 -1,617 Descending Cleveland Center
Sat 02:04:52 PM 42.5658 -82.3225 253° West 320 368 15,400 -1,714 Descending Cleveland Center
Sat 02:05:35 PM 42.5458 -82.4008 251° West 326 375 14,200 -1,754 Descending Cleveland Center
Sat 02:05:57 PM 42.5328 -82.4456 248° West 335 386 13,500 -1,672 Descending Cleveland Center
Sat 02:06:36 PM 42.5147 -82.5183 251° West 322 371 12,500 -1,400 Descending Cleveland Center
Sat 02:06:57 PM 42.5017 -82.5575 246° West 329 379 12,100 -984 Descending Cleveland Center
Sat 02:07:37 PM 42.4775 -82.6325 246° West 313 360 11,500 -1,000 Descending Cleveland Center
Sat 02:07:57 PM 42.4642 -82.6631 239° Southwest 324 373 11,100 -1,286 Descending Cleveland Center
Sat 02:08:33 PM 42.4464 -82.7244 249° West 282 325 10,300 -1,200 Descending Cleveland Center
Sat 02:08:57 PM 42.4356 -82.7550 244° Southwest 302 348 9,900 -1,273 Descending Cleveland Center
Sat 02:09:39 PM 42.4300 -82.8197 263° West 232 267 8,900 -1,500 Descending Cleveland Center
Sat 02:09:57 PM 42.4275 -82.8419 261° West 257 296 8,400 -1,459 Descending Cleveland Center
Sat 02:10:53 PM 42.4217 -82.9289 265° West 240 276 7,100 -743 Descending Cleveland Center
Sat 02:11:42 PM 42.4158 -83.0047 264° West 244 281 7,100 -94 Level Cleveland Center
Sat 02:11:57 PM 42.4133 -83.0244 260° West 247 284 7,000 -82 Descending Cleveland Center
Sat 02:12:55 PM 42.4225 -83.0894 281° West 160 184 7,000 -729 Level Cleveland Center
Sat 02:13:44 PM 42.4150 -83.1425 259° West 172 198 5,700 -1,397 Descending Cleveland Center
Sat 02:14:51 PM 42.3864 -83.2061 239° Southwest 169 194 4,300 -1,078 Descending Cleveland Center
Sat 02:15:52 PM 42.3439 -83.2464 215° Southwest 186 214 3,400 -885 Descending Cleveland Center

Login

Don't have an account? Register now (free) for customized features, flight alerts, and more!